Rose Tree, Pennsylvania
Current Conditions -  °F | °C
As of 3:54 AM on Monday 24 Nov 2014 (Local Time) from KPHL Reporting Station
Overcast Overcast  
Wind Chill: 64°   Ceiling: 1400
Heat Index: 64°   Visibility: 10mi
Dew Point: 59°   Wind: 25mph
Humidity: 84%   Direction: 170°S
Pressure: 29.7"   Gusts: 38mph
Location:  39.9207°N, 75.4181°W
Report Text: KPHL 240854Z 17022G33KT 10SM BKN014 OVC025 18/15 A2970 RMK AO2 PK WND 17034/0817 RAE17 SLP057 P0004 60035 T01780150 56052 $
Loading
Personal Weather Stations






























Interactive Weather Map New forecast layout! Learn more

10-Day Weather Forecast

Advertisements
Track Severe Weather on mobile